Twentynine Palms (Self) Airport
KNXP : now visible

Airfield :











YOU CAN JOIN US ON...

 
LOGIN :

Register | Disclaimer

   EN    FR    IT 

 









Legend :    VFR   Marginal VFR   IFR   Intensive IFR   Very Intensive IFR
Visi :
Ceiling :
>= 8 km
>= 3000ft
5 to 8 km
1000 to 3000 ft
1500m to 5 km
500 to 1000 ft
800 to 1500m
200 to 500 ft
< 800m
< 200 ft
Symbols :   Thunderstorms  Fog  Heavy snow  Heavy precipitations  Wind > 20 kt






- Airport Elevation : 2051 ft


KNXP - Twentynine Palms (Self)

CURRENT METAR :
  • 270556Z AUTO 34011KT 10SM CLR 09/M16 A3024 RMK AO2 SLP224 T00941156 10139 20094 53014

EXPIRED METARs :
  • 270456Z AUTO 33016KT 10SM CLR 10/M14 A3022 RMK AO2 SLP216 T01001144
  • 270356Z AUTO 33012KT 10SM CLR 09/M13 A3021 RMK AO2 SLP216 T00941133
  • 270256Z AUTO 30015KT 10SM CLR 11/M13 A3020 RMK AO2 SLP212 T01061128 51010

TAF TAF KNXP
Valid from the 26 at 15:00 until the 27 at 15:00 UTC


2615/2715 33010KT 9999 SKC QNH3015INS
BECMG 2617/2619 33015G25KT 9999 SKC QNH3010INS
TEMPO 2622/2704 31020G30KT T15/2621Z T05/2714Z LAST TAF NO AMD AFT 2615/ NEXT 2715
KZLA FIR / North America



MET'MAP, your aeronautical weather chart ! - Copyright ORBIFLY December 2007 - Disclaimer

ORBIFLY MET'MAP TEAM :

Programming & Development : Alexandra Zaïnal
Concept & original design : Baudouin d'Aumeries
Assistance for programming : Marc-Olivier Méhu
Technical & hardware support : Manuel Goepfert

Contact : metmap@orbifly.com




SOURCES & CREDITS :

   NOAA       Earth
Advisory